Time;durP1;ratioP1;P1;durP2;ratioP2;P2;SDS_P1;SDS_P2;PMS_P1;PMS_P2;Temp;Humidity;BMP_temperature;BMP_pressure;BME280_temperature;BME280_humidity;BME280_pressure;Samples;Min_cycle;Max_cycle;Signal;HPM_P1;HPM_P2
2023/11/15 00:00:41;;;;;;;19.83;11.32;;;;;;;9.87;67.25;94229.63;4211807;28;20044;-69
2023/11/15 00:02:46;;;;;;;17.50;11.95;;;;;;;9.89;67.49;94227.66;4203350;28;20047;-71
2023/11/15 00:04:48;;;;;;;21.40;12.60;;;;;;;9.94;66.82;94224.56;4209090;28;20040;-70
2023/11/15 00:06:51;;;;;;;18.67;11.65;;;;;;;9.94;66.77;94219.34;4211134;28;20083;-70
2023/11/15 00:08:53;;;;;;;23.83;12.57;;;;;;;9.98;67.12;94231.06;4206355;28;20040;-70
2023/11/15 00:10:55;;;;;;;25.15;12.45;;;;;;;9.94;66.85;94219.34;4201589;28;20048;-70
2023/11/15 00:12:58;;;;;;;20.23;11.95;;;;;;;9.93;67.08;94233.38;4198070;28;20097;-66
2023/11/15 00:15:00;;;;;;;21.85;12.10;;;;;;;9.96;66.68;94233.88;4201198;28;20048;-68
2023/11/15 00:17:02;;;;;;;21.20;10.85;;;;;;;9.74;67.04;94243.22;4205545;28;20072;-67
2023/11/15 00:19:07;;;;;;;21.83;11.88;;;;;;;9.67;67.65;94226.56;4211642;28;20482;-67
2023/11/15 00:21:09;;;;;;;18.48;12.00;;;;;;;9.70;67.66;94225.41;4199560;28;20048;-69
2023/11/15 00:23:11;;;;;;;20.77;11.00;;;;;;;9.72;67.68;94221.66;4206870;28;20048;-68
2023/11/15 00:25:14;;;;;;;20.27;11.23;;;;;;;9.55;68.12;94207.78;4201550;28;20045;-69
2023/11/15 00:27:19;;;;;;;18.13;11.73;;;;;;;9.55;68.30;94222.63;4204719;28;20044;-67
2023/11/15 00:29:21;;;;;;;17.88;10.98;;;;;;;9.62;68.57;94205.31;4210994;28;20044;-68
2023/11/15 00:31:24;;;;;;;16.13;10.05;;;;;;;9.66;68.34;94211.84;4207379;28;20627;-70
2023/11/15 00:33:26;;;;;;;20.75;11.20;;;;;;;9.70;68.40;94214.94;4205274;28;20059;-69
2023/11/15 00:35:28;;;;;;;17.57;9.80;;;;;;;9.65;67.71;94225.91;4210655;28;20489;-70
2023/11/15 00:37:30;;;;;;;16.90;9.40;;;;;;;9.48;67.54;94224.28;4211335;28;20055;-71
2023/11/15 00:39:33;;;;;;;16.80;10.10;;;;;;;9.36;68.17;94227.22;4196133;28;20052;-68
2023/11/15 00:41:35;;;;;;;16.90;9.88;;;;;;;9.32;69.00;94225.09;4211621;28;20047;-68
2023/11/15 00:43:37;;;;;;;15.48;9.43;;;;;;;9.39;68.76;94229.50;4211721;28;20071;-71
2023/11/15 00:45:39;;;;;;;20.02;10.05;;;;;;;9.49;68.51;94231.97;4210842;28;20058;-69
2023/11/15 00:47:41;;;;;;;17.30;10.15;;;;;;;9.54;67.97;94224.44;4208923;28;20044;-69
2023/11/15 00:49:44;;;;;;;15.77;9.60;;;;;;;9.60;68.50;94221.16;4209877;28;20448;-70
2023/11/15 00:51:45;;;;;;;18.90;9.82;;;;;;;9.70;68.12;94214.94;4210025;28;20047;-69
2023/11/15 00:53:47;;;;;;;18.48;10.43;;;;;;;9.64;67.56;94232.94;4212401;28;20490;-69
2023/11/15 00:55:49;;;;;;;16.48;9.00;;;;;;;9.68;67.84;94219.50;4208584;28;20056;-70
2023/11/15 00:57:52;;;;;;;16.10;10.20;;;;;;;9.66;67.71;94209.25;4199969;28;20044;-70
2023/11/15 00:59:54;;;;;;;17.90;9.73;;;;;;;9.69;67.07;94208.09;4203835;28;20113;-68
2023/11/15 01:01:59;;;;;;;16.27;9.00;;;;;;;9.73;67.38;94204.97;4207950;28;20518;-70
2023/11/15 01:04:01;;;;;;;14.00;9.15;;;;;;;9.69;66.95;94223.78;4190875;28;20071;-70
2023/11/15 01:06:04;;;;;;;18.52;9.45;;;;;;;9.68;67.40;94230.81;4202013;28;20147;-68
2023/11/15 01:08:06;;;;;;;14.45;9.45;;;;;;;9.71;67.60;94224.44;4201944;28;20056;-70
2023/11/15 01:10:09;;;;;;;17.63;9.57;;;;;;;9.71;67.50;94217.41;4202614;28;20052;-70
2023/11/15 01:12:11;;;;;;;19.35;10.75;;;;;;;9.75;66.92;94191.72;4209825;28;20079;-68
2023/11/15 01:14:13;;;;;;;19.00;9.65;;;;;;;9.76;66.87;94190.72;4197597;28;20044;-69
2023/11/15 01:16:17;;;;;;;20.70;9.80;;;;;;;9.78;67.37;94188.78;4204963;28;20127;-69
2023/11/15 01:18:22;;;;;;;;;;;;;;;9.38;68.50;94180.81;4210743;28;20097;-69
2023/11/15 01:20:25;;;;;;;19.20;9.80;;;;;;;9.17;69.26;94177.88;4180202;28;19928;-69
2023/11/15 01:22:26;;;;;;;15.60;10.30;;;;;;;9.20;69.95;94180.16;4207213;28;20090;-67
2023/11/15 01:24:28;;;;;;;16.23;9.93;;;;;;;9.26;69.32;94179.50;4202852;28;20062;-70
2023/11/15 01:26:31;;;;;;;17.95;9.93;;;;;;;9.32;69.03;94181.47;4207980;28;20048;-69
2023/11/15 01:28:33;;;;;;;17.53;8.93;;;;;;;9.36;69.49;94167.09;4210460;28;20530;-68
2023/11/15 01:30:35;;;;;;;20.00;9.02;;;;;;;9.21;69.11;94166.13;4202061;28;20300;-70
2023/11/15 01:32:37;;;;;;;17.58;9.90;;;;;;;9.26;69.77;94169.06;4189343;28;20060;-70
2023/11/15 01:34:39;;;;;;;14.43;9.30;;;;;;;9.34;69.35;94165.63;4207863;28;20068;-68
2023/11/15 01:36:41;;;;;;;16.25;9.35;;;;;;;9.28;69.81;94172.31;4203356;28;20135;-70
2023/11/15 01:38:43;;;;;;;16.70;9.48;;;;;;;9.10;69.08;94184.72;4200396;28;20560;-69
2023/11/15 01:40:46;;;;;;;15.88;9.65;;;;;;;9.14;69.59;94172.97;4207316;28;20052;-69
2023/11/15 01:42:48;;;;;;;13.95;8.80;;;;;;;9.22;69.94;94176.41;4199457;28;20430;-70
2023/11/15 01:44:52;;;;;;;15.10;8.88;;;;;;;9.32;69.18;94168.41;4195561;28;20040;-70
2023/11/15 01:46:54;;;;;;;17.73;9.52;;;;;;;9.40;69.75;94164.97;4205010;28;20056;-70
2023/11/15 01:48:56;;;;;;;16.20;8.75;;;;;;;9.42;68.69;94170.84;4194987;28;20494;-68
2023/11/15 01:50:59;;;;;;;12.85;8.68;;;;;;;9.37;69.24;94163.47;4190623;28;20429;-68
2023/11/15 01:53:01;;;;;;;13.90;9.80;;;;;;;9.37;68.58;94152.22;4193461;28;20108;-69
2023/11/15 01:55:05;;;;;;;14.13;8.90;;;;;;;9.27;68.79;94141.13;4193302;28;20122;-69
2023/11/15 01:57:07;;;;;;;;;;;;;;;9.29;69.04;94147.84;4194066;28;20475;-68
2023/11/15 01:59:09;;;;;;;16.48;9.32;;;;;;;9.35;68.97;94128.84;4211160;28;19920;-70
2023/11/15 02:01:13;;;;;;;14.65;8.77;;;;;;;9.41;68.93;94117.72;4188125;28;20123;-70
2023/11/15 02:03:15;;;;;;;16.85;8.95;;;;;;;9.50;69.01;94109.88;4209866;28;20044;-69
2023/11/15 02:05:17;;;;;;;14.10;8.95;;;;;;;9.55;68.11;94120.66;4212344;28;20076;-69
2023/11/15 02:07:19;;;;;;;16.48;9.00;;;;;;;9.52;68.13;94116.56;4212611;28;20605;-69
2023/11/15 02:09:21;;;;;;;14.65;8.10;;;;;;;9.55;68.40;94118.88;4210579;28;20048;-69
2023/11/15 02:11:23;;;;;;;15.10;8.30;;;;;;;9.49;68.04;94109.06;4205871;28;20059;-71
2023/11/15 02:13:26;;;;;;;15.48;7.75;;;;;;;9.51;68.29;94096.66;4214545;28;20048;-69
2023/11/15 02:15:28;;;;;;;13.18;8.32;;;;;;;9.53;67.52;94093.84;4214836;28;20052;-72
2023/11/15 02:17:30;;;;;;;14.15;8.23;;;;;;;9.55;67.17;94094.50;4213493;28;20101;-70
2023/11/15 02:19:32;;;;;;;14.95;7.78;;;;;;;9.52;67.54;94066.91;4213190;28;20062;-70
2023/11/15 02:21:34;;;;;;;13.57;7.82;;;;;;;9.44;68.19;94064.28;4213729;28;20115;-68
2023/11/15 02:23:41;;;;;;;13.77;7.07;;;;;;;9.35;67.79;94081.00;4210078;28;20044;-70
2023/11/15 02:25:43;;;;;;;13.70;8.07;;;;;;;9.12;68.75;94070.41;4213697;28;20064;-68
2023/11/15 02:27:45;;;;;;;13.40;7.95;;;;;;;9.18;68.56;94065.34;4213857;28;20540;-69
2023/11/15 02:29:48;;;;;;;13.23;8.00;;;;;;;9.23;68.43;94049.97;4194875;28;20050;-69
2023/11/15 02:31:51;;;;;;;;;;;;;;;9.26;68.03;94048.81;4212569;28;20056;-69
2023/11/15 02:33:52;;;;;;;18.35;8.82;;;;;;;9.26;68.32;94061.09;4204538;28;20409;-71
2023/11/15 02:35:54;;;;;;;15.68;8.13;;;;;;;9.17;68.85;94053.25;4211168;28;20101;-70
2023/11/15 02:37:56;;;;;;;12.30;7.38;;;;;;;9.23;68.78;94052.59;4210115;28;20040;-70
2023/11/15 02:39:58;;;;;;;11.95;7.53;;;;;;;8.94;68.79;94081.03;4205254;28;20574;-70
2023/11/15 02:41:59;;;;;;;14.98;8.85;;;;;;;8.66;70.24;94093.59;4212010;28;20052;-70
2023/11/15 02:44:01;;;;;;;16.90;8.23;;;;;;;8.30;72.28;94068.59;4211591;28;20044;-71
2023/11/15 02:46:03;;;;;;;14.63;8.93;;;;;;;8.35;72.36;94055.03;4207266;28;20047;-66
2023/11/15 02:48:05;;;;;;;19.17;9.02;;;;;;;8.50;71.62;94060.47;4205427;28;20044;-68
2023/11/15 02:50:08;;;;;;;17.23;8.73;;;;;;;8.52;71.46;94064.56;4213209;28;20126;-69
2023/11/15 02:52:10;;;;;;;14.73;9.43;;;;;;;8.23;71.85;94062.34;4213322;28;20582;-69
2023/11/15 02:54:11;;;;;;;17.25;9.43;;;;;;;8.12;72.77;94083.53;4213714;28;20048;-69
2023/11/15 02:56:13;;;;;;;21.50;9.68;;;;;;;8.22;72.51;94073.78;4203828;28;20087;-68
2023/11/15 02:58:15;;;;;;;12.60;9.10;;;;;;;8.27;72.04;94058.44;4208308;28;20089;-69
2023/11/15 03:00:17;;;;;;;14.35;9.40;;;;;;;8.39;72.20;94080.66;4201139;28;20138;-69
2023/11/15 03:02:19;;;;;;;19.13;9.98;;;;;;;8.51;71.35;94055.06;4211954;28;20048;-69
2023/11/15 03:04:22;;;;;;;13.98;8.32;;;;;;;8.61;71.13;94068.00;4193756;28;20139;-69
2023/11/15 03:06:24;;;;;;;16.17;8.98;;;;;;;8.78;70.99;94079.25;4212259;28;20498;-70
2023/11/15 03:08:26;;;;;;;12.13;8.52;;;;;;;8.84;70.36;94093.44;4204382;28;20040;-70
2023/11/15 03:10:28;;;;;;;14.27;9.25;;;;;;;8.94;70.47;94091.50;4212240;28;20064;-72
2023/11/15 03:12:32;;;;;;;15.75;8.88;;;;;;;9.05;70.06;94083.31;4194437;28;20048;-69
2023/11/15 03:14:34;;;;;;;15.45;8.85;;;;;;;9.13;69.56;94085.13;4171860;28;20124;-68
2023/11/15 03:16:36;;;;;;;14.00;9.55;;;;;;;9.19;70.17;94094.91;4198781;28;20045;-69
2023/11/15 03:18:37;;;;;;;13.27;8.07;;;;;;;9.21;69.16;94069.44;4202201;28;20560;-69
2023/11/15 03:20:39;;;;;;;13.35;8.63;;;;;;;9.27;69.34;94088.84;4200887;28;20086;-68
2023/11/15 03:22:41;;;;;;;12.82;8.18;;;;;;;9.27;68.53;94081.00;4204922;28;20535;-69
2023/11/15 03:24:45;;;;;;;15.13;9.45;;;;;;;9.23;68.85;94080.53;4200756;28;20468;-69
2023/11/15 03:26:47;;;;;;;13.23;8.07;;;;;;;9.12;69.13;94080.84;4195548;28;20491;-69
2023/11/15 03:28:49;;;;;;;15.50;7.97;;;;;;;9.14;69.49;94071.06;4206604;28;20540;-68
2023/11/15 03:30:50;;;;;;;14.48;7.97;;;;;;;9.10;69.86;94059.28;4206747;28;20055;-69
2023/11/15 03:32:53;;;;;;;17.15;9.20;;;;;;;9.17;69.49;94057.66;4211162;28;20044;-70
2023/11/15 03:34:55;;;;;;;17.27;8.95;;;;;;;9.25;70.01;94068.13;4209470;28;20091;-71
2023/11/15 03:36:58;;;;;;;12.32;7.43;;;;;;;9.33;69.41;94075.91;4205224;28;20122;-70
2023/11/15 03:38:59;;;;;;;14.10;7.32;;;;;;;9.26;69.16;94051.44;4212016;28;20044;-69
2023/11/15 03:41:02;;;;;;;14.55;7.47;;;;;;;9.27;68.73;94063.53;4193442;28;20194;-69
2023/11/15 03:43:03;;;;;;;11.77;8.05;;;;;;;9.23;68.91;94062.25;4201516;28;20077;-68
2023/11/15 03:45:06;;;;;;;14.50;7.95;;;;;;;9.17;69.48;94050.63;4211078;28;20072;-68
2023/11/15 03:47:08;;;;;;;13.80;7.53;;;;;;;9.23;69.40;94081.34;4194547;28;20131;-70
2023/11/15 03:49:11;;;;;;;11.40;7.43;;;;;;;9.19;69.45;94047.88;4185767;28;20073;-71
2023/11/15 03:51:13;;;;;;;14.15;7.70;;;;;;;9.28;69.26;94052.09;4201844;28;20487;-68
2023/11/15 03:53:16;;;;;;;10.63;6.82;;;;;;;9.34;68.53;94050.63;4208134;28;20055;-69
2023/11/15 03:55:19;;;;;;;13.77;7.18;;;;;;;9.23;68.77;94051.78;4199957;28;20048;-69
2023/11/15 03:57:21;;;;;;;13.93;7.53;;;;;;;9.29;69.49;94043.28;4212949;28;20441;-70
2023/11/15 03:59:23;;;;;;;13.43;7.20;;;;;;;9.38;68.68;94039.66;4212176;28;20402;-70
2023/11/15 04:01:25;;;;;;;12.65;7.65;;;;;;;9.45;68.57;94018.06;4193391;28;20076;-69
2023/11/15 04:03:27;;;;;;;11.85;7.60;;;;;;;9.47;68.34;94032.59;4209178;28;20075;-69
2023/11/15 04:05:31;;;;;;;13.60;7.70;;;;;;;9.14;69.45;94037.09;4210569;28;20052;-69
2023/11/15 04:07:33;;;;;;;14.88;7.50;;;;;;;9.15;69.47;94036.13;4194832;28;20044;-69
2023/11/15 04:09:36;;;;;;;11.73;7.28;;;;;;;9.20;69.31;94000.66;4211175;28;20043;-71
2023/11/15 04:11:40;;;;;;;16.40;7.88;;;;;;;9.33;69.31;94010.56;4210004;28;20046;-70
2023/11/15 04:13:44;;;;;;;12.68;7.30;;;;;;;9.46;69.22;93991.75;4219552;28;20577;-68
2023/11/15 04:15:47;;;;;;;11.95;7.97;;;;;;;9.56;68.44;94012.47;4199874;28;20040;-68
2023/11/15 04:17:49;;;;;;;12.27;6.63;;;;;;;9.57;68.09;93982.72;4191670;28;20067;-68
2023/11/15 04:19:51;;;;;;;19.00;7.45;;;;;;;9.39;68.43;94016.94;4203783;28;20044;-68
2023/11/15 04:21:53;;;;;;;11.77;7.57;;;;;;;9.36;69.00;94018.09;4198611;28;20098;-67
2023/11/15 04:24:12;;;;;;;18.23;7.60;;;;;;;9.41;68.62;93976.56;4222156;28;20145;-69
2023/11/15 04:26:16;;;;;;;12.48;7.03;;;;;;;9.49;69.14;94001.06;4211742;28;20044;-70
2023/11/15 04:28:18;;;;;;;14.25;6.75;;;;;;;9.53;68.14;94015.41;4209887;28;20048;-69
2023/11/15 04:30:20;;;;;;;12.13;7.13;;;;;;;9.56;68.49;93989.75;4208237;28;20051;-71
2023/11/15 04:32:22;;;;;;;12.18;6.93;;;;;;;9.62;68.50;93985.66;4200839;28;20063;-69
2023/11/15 04:34:24;;;;;;;14.00;7.90;;;;;;;9.65;68.59;93987.91;4203927;28;20105;-69
2023/11/15 04:36:32;;;;;;;13.10;6.80;;;;;;;9.71;68.00;94002.91;4226318;28;20108;-70
2023/11/15 04:38:34;;;;;;;12.02;6.68;;;;;;;9.76;67.63;93977.06;4211596;28;20106;-71
2023/11/15 04:40:37;;;;;;;14.10;7.10;;;;;;;9.71;67.44;93981.19;4209062;28;20525;-71
2023/11/15 04:42:38;;;;;;;19.67;7.70;;;;;;;9.74;68.02;93999.16;4207941;28;20048;-70
2023/11/15 04:44:41;;;;;;;14.80;7.70;;;;;;;9.68;67.72;93958.81;4209820;28;20537;-68
2023/11/15 04:46:43;;;;;;;16.77;7.28;;;;;;;9.72;68.17;93964.50;4207393;28;20109;-66
2023/11/15 04:48:45;;;;;;;17.63;8.38;;;;;;;9.73;68.15;93969.56;4198379;28;20051;-70
2023/11/15 04:50:46;;;;;;;14.32;7.68;;;;;;;9.72;67.88;93967.13;4211623;28;20143;-70
2023/11/15 04:52:48;;;;;;;15.55;7.55;;;;;;;9.74;67.94;93996.53;4212622;28;20460;-70
2023/11/15 04:54:50;;;;;;;14.82;7.25;;;;;;;9.71;67.68;93950.63;4210105;28;20056;-71
2023/11/15 04:56:52;;;;;;;17.42;6.97;;;;;;;9.63;68.05;93961.09;4211402;28;20138;-72
2023/11/15 04:58:54;;;;;;;13.70;6.55;;;;;;;9.56;68.04;93954.94;4208301;28;20530;-68
2023/11/15 05:00:56;;;;;;;17.45;7.03;;;;;;;9.45;68.71;93950.91;4209017;28;20127;-70
2023/11/15 05:02:58;;;;;;;9.15;5.85;;;;;;;9.47;68.55;93963.81;4209668;28;20191;-72
2023/11/15 05:05:00;;;;;;;13.52;6.47;;;;;;;9.24;69.25;93964.53;4205513;28;20052;-71
2023/11/15 05:07:04;;;;;;;13.18;5.88;;;;;;;9.17;68.74;93951.34;4213414;28;20052;-71
2023/11/15 05:09:06;;;;;;;11.82;5.65;;;;;;;9.25;69.21;93931.38;4198758;28;20051;-73
2023/11/15 05:11:09;;;;;;;11.55;6.18;;;;;;;9.29;69.00;93938.75;4202173;28;20048;-71
2023/11/15 05:13:11;;;;;;;10.48;6.18;;;;;;;9.31;69.37;93941.97;4210813;28;20534;-72
2023/11/15 05:15:14;;;;;;;10.95;5.75;;;;;;;9.38;68.81;93939.50;4199138;28;20091;-69
2023/11/15 05:17:17;;;;;;;13.50;5.78;;;;;;;9.45;69.02;93960.56;4196601;28;20589;-70
2023/11/15 05:19:18;;;;;;;12.97;5.53;;;;;;;9.27;68.41;93973.84;4196386;28;20047;-70
2023/11/15 05:21:20;;;;;;;12.65;5.30;;;;;;;9.24;68.95;93941.03;4196627;28;20045;-69
2023/11/15 05:23:22;;;;;;;16.70;5.75;;;;;;;9.36;69.31;93934.44;4204321;28;20421;-70
2023/11/15 05:25:24;;;;;;;12.20;5.50;;;;;;;9.49;69.26;93948.78;4184359;28;20052;-71
2023/11/15 05:27:26;;;;;;;12.73;6.10;;;;;;;9.48;68.07;93921.78;4197778;28;20048;-71
2023/11/15 05:29:30;;;;;;;14.85;5.28;;;;;;;9.22;69.52;93958.66;4215474;28;20044;-71
2023/11/15 05:31:33;;;;;;;9.57;4.97;;;;;;;9.36;69.62;93941.47;4213151;28;20054;-73
2023/11/15 05:33:35;;;;;;;9.05;5.00;;;;;;;9.53;68.69;93944.81;4215954;28;20547;-71
2023/11/15 05:35:37;;;;;;;7.95;4.85;;;;;;;9.64;68.02;93924.34;4215234;28;20054;-72
2023/11/15 05:37:39;;;;;;;10.02;4.95;;;;;;;9.64;68.62;93923.53;4214521;28;20098;-69
2023/11/15 05:39:43;;;;;;;9.82;4.38;;;;;;;9.68;67.85;93955.38;4212902;28;20090;-72
2023/11/15 05:41:45;;;;;;;16.10;5.85;;;;;;;9.64;68.16;93936.59;4214924;28;20044;-71
2023/11/15 05:43:47;;;;;;;13.20;5.32;;;;;;;9.75;68.43;93930.16;4215494;28;20474;-70
2023/11/15 05:45:49;;;;;;;11.45;4.80;;;;;;;9.88;67.88;93930.41;4214314;28;20055;-71
2023/11/15 05:47:51;;;;;;;17.15;7.35;;;;;;;9.91;67.92;93937.09;4205474;28;20132;-70
2023/11/15 05:49:53;;;;;;;10.32;5.18;;;;;;;9.92;68.24;93943.97;4208732;28;20126;-70
2023/11/15 05:51:56;;;;;;;13.07;5.53;;;;;;;10.07;67.54;93939.59;4208642;28;20067;-71
2023/11/15 05:54:03;;;;;;;11.45;5.30;;;;;;;10.01;67.96;93919.38;4213957;28;20048;-70
2023/11/15 05:56:06;;;;;;;10.18;4.78;;;;;;;10.11;67.43;93940.88;4212950;28;20414;-69
2023/11/15 05:58:09;;;;;;;12.60;5.40;;;;;;;10.18;66.65;93920.88;4192187;28;20044;-70
2023/11/15 06:00:21;;;;;;;9.57;4.85;;;;;;;10.30;66.63;93926.53;4201604;28;20051;-73
2023/11/15 06:02:23;;;;;;;12.85;6.60;;;;;;;10.25;67.10;93906.06;4208044;28;20071;-70
2023/11/15 06:04:25;;;;;;;12.80;5.40;;;;;;;10.33;66.52;93928.81;4210260;28;20043;-71
2023/11/15 06:06:28;;;;;;;15.02;5.07;;;;;;;10.23;66.86;93963.03;4212277;28;20479;-71
2023/11/15 06:08:30;;;;;;;12.13;5.30;;;;;;;10.30;66.73;93913.44;4193021;28;20044;-71
2023/11/15 06:10:32;;;;;;;17.60;5.80;;;;;;;10.42;67.33;93914.66;4214547;28;20460;-72
2023/11/15 06:12:35;;;;;;;12.73;4.55;;;;;;;10.54;66.31;93970.03;4210508;28;20051;-72
2023/11/15 06:14:37;;;;;;;7.90;4.45;;;;;;;10.54;65.82;93930.75;4211234;28;20048;-72
2023/11/15 06:16:39;;;;;;;11.45;4.60;;;;;;;10.69;65.83;93917.69;4211536;28;20746;-72
2023/11/15 06:18:42;;;;;;;13.77;4.93;;;;;;;10.87;65.31;93940.91;4210201;28;20082;-70
2023/11/15 06:20:44;;;;;;;13.77;4.47;;;;;;;10.70;65.38;93928.97;4201698;28;20503;-70
2023/11/15 06:22:46;;;;;;;10.55;4.50;;;;;;;10.89;65.55;93935.50;4192297;28;20285;-71
2023/11/15 06:24:50;;;;;;;8.98;4.03;;;;;;;10.67;65.67;93914.44;4212920;28;20052;-72
2023/11/15 06:26:55;;;;;;;8.70;4.75;;;;;;;10.97;65.33;93943.25;4212332;28;20040;-71
2023/11/15 06:28:59;;;;;;;12.80;4.70;;;;;;;11.22;64.78;93934.13;4196644;28;20131;-72
2023/11/15 06:31:02;;;;;;;15.10;5.47;;;;;;;11.42;64.40;93923.09;4211592;28;20109;-70
2023/11/15 06:33:04;;;;;;;13.60;4.78;;;;;;;11.59;63.69;93927.13;4213372;28;20052;-73
2023/11/15 06:35:06;;;;;;;11.95;4.90;;;;;;;11.56;63.42;93977.34;4196265;28;20071;-72
2023/11/15 06:37:12;;;;;;;11.20;4.43;;;;;;;11.66;63.23;93930.66;4214152;28;20414;-73
2023/11/15 06:39:14;;;;;;;13.10;4.78;;;;;;;11.82;62.93;93916.50;4212534;28;20108;-72
2023/11/15 06:41:16;;;;;;;14.05;4.63;;;;;;;11.92;62.63;93975.78;4213724;28;20052;-72
2023/11/15 06:43:18;;;;;;;9.40;4.63;;;;;;;11.61;62.95;93945.31;4211992;28;20564;-73
2023/11/15 06:45:20;;;;;;;8.48;4.43;;;;;;;11.76;62.70;93947.91;4210097;28;20040;-72
2023/11/15 06:47:24;;;;;;;14.07;5.10;;;;;;;11.99;62.87;93947.81;4210073;28;20056;-72
2023/11/15 06:49:29;;;;;;;10.90;4.63;;;;;;;12.09;62.03;93932.56;4209951;28;20051;-73
2023/11/15 06:51:31;;;;;;;16.77;6.20;;;;;;;12.29;62.05;93957.19;4204058;28;20103;-71
2023/11/15 06:53:34;;;;;;;15.02;4.80;;;;;;;12.42;60.88;93951.25;4210743;28;20495;-71
2023/11/15 06:55:36;;;;;;;10.55;4.65;;;;;;;12.38;60.75;93942.09;4201358;28;20056;-72
2023/11/15 06:57:39;;;;;;;20.23;6.40;;;;;;;12.57;61.07;93940.66;4201966;28;20048;-71
2023/11/15 06:59:41;;;;;;;;;;;;;;;12.74;60.09;93962.22;4202102;28;21240;-71
2023/11/15 07:01:48;;;;;;;8.82;4.25;;;;;;;12.38;60.29;93922.91;4226818;28;20040;-70
2023/11/15 07:03:53;;;;;;;16.45;5.03;;;;;;;12.55;60.61;93934.78;4201325;28;20047;-74
2023/11/15 07:05:55;;;;;;;21.33;6.22;;;;;;;12.68;60.78;93941.97;4203777;28;20044;-71
2023/11/15 07:07:57;;;;;;;16.08;4.53;;;;;;;12.72;60.13;93929.25;4206758;28;20048;-72
2023/11/15 07:09:59;;;;;;;12.38;4.47;;;;;;;12.88;59.88;93961.34;4201357;28;20048;-71
2023/11/15 07:12:02;;;;;;;19.02;5.90;;;;;;;12.92;59.75;93938.09;4195713;28;20346;-73
2023/11/15 07:14:06;;;;;;;12.88;4.60;;;;;;;12.91;59.28;93968.81;4204257;28;20044;-73
2023/11/15 07:16:10;;;;;;;12.90;5.45;;;;;;;12.70;59.59;93943.38;4206746;28;20104;-71
2023/11/15 07:18:13;;;;;;;9.55;5.47;;;;;;;12.53;60.59;93949.13;4193929;28;20594;-72
2023/11/15 07:20:20;;;;;;;14.90;6.07;;;;;;;12.71;60.05;93946.81;4211706;28;20070;-72
2023/11/15 07:22:22;;;;;;;9.40;4.63;;;;;;;12.93;59.91;93931.84;4205185;28;20062;-72
2023/11/15 07:24:25;;;;;;;11.70;4.82;;;;;;;13.03;59.61;93963.03;4206910;28;20484;-71
2023/11/15 07:26:30;;;;;;;14.48;5.65;;;;;;;13.29;59.02;93972.94;4211176;28;20048;-72
2023/11/15 07:28:32;;;;;;;11.27;4.20;;;;;;;13.10;59.79;93930.53;4180163;28;20060;-71
2023/11/15 07:30:34;;;;;;;9.15;4.32;;;;;;;13.03;59.37;93931.47;4206243;28;20055;-71
2023/11/15 07:32:37;;;;;;;10.02;4.55;;;;;;;13.09;58.44;93943.88;4196141;28;20449;-73
2023/11/15 07:34:40;;;;;;;10.00;5.22;;;;;;;13.25;58.19;93929.59;4213337;28;20223;-73
2023/11/15 07:36:44;;;;;;;10.70;4.60;;;;;;;13.47;57.81;93938.25;4213692;28;20052;-74
2023/11/15 07:38:46;;;;;;;11.77;5.03;;;;;;;13.55;57.74;93930.19;4212242;28;20492;-72
2023/11/15 07:40:48;;;;;;;14.02;4.88;;;;;;;13.57;57.68;93933.41;4194624;28;20464;-73
2023/11/15 07:42:51;;;;;;;14.67;4.97;;;;;;;13.57;57.59;93937.88;4209072;28;20056;-71
2023/11/15 07:44:55;;;;;;;12.82;5.63;;;;;;;13.45;58.24;93950.78;4194605;28;20055;-71
2023/11/15 07:46:58;;;;;;;11.25;5.55;;;;;;;13.52;58.10;93947.16;4204004;28;20414;-71
2023/11/15 07:49:02;;;;;;;14.10;6.50;;;;;;;13.54;58.14;93931.19;4205347;28;21046;-71
2023/11/15 07:51:05;;;;;;;45.53;8.93;;;;;;;13.62;57.57;93954.72;4189025;28;20545;-71
2023/11/15 07:53:06;;;;;;;15.93;5.25;;;;;;;13.23;58.52;93916.66;4211513;28;20063;-70
2023/11/15 07:55:10;;;;;;;18.75;6.10;;;;;;;13.27;58.75;93946.81;4210333;28;20055;-72
2023/11/15 07:57:14;;;;;;;;;;;;;;;13.38;58.68;93934.97;4188637;28;20432;-72
2023/11/15 07:59:16;;;;;;;15.23;5.60;;;;;;;13.33;57.97;93945.25;4207582;28;19926;-73
2023/11/15 08:01:22;;;;;;;10.02;5.85;;;;;;;13.35;58.24;93924.00;4205681;28;20052;-73
2023/11/15 08:03:27;;;;;;;13.63;5.78;;;;;;;13.22;58.66;93953.66;4215069;28;20055;-72
2023/11/15 08:05:30;;;;;;;13.13;5.00;;;;;;;13.56;58.31;93955.47;4202558;28;20052;-73
2023/11/15 08:07:34;;;;;;;8.18;4.60;;;;;;;13.70;57.00;93920.31;4196346;28;20052;-74
2023/11/15 08:09:36;;;;;;;10.63;5.32;;;;;;;13.96;57.42;93944.28;4207552;28;20131;-72
2023/11/15 08:11:38;;;;;;;15.80;5.35;;;;;;;14.10;56.64;93957.28;4208252;28;20559;-73
2023/11/15 08:13:41;;;;;;;9.02;4.63;;;;;;;14.23;56.46;93950.44;4199730;28;20068;-72
2023/11/15 08:15:43;;;;;;;;;;;;;;;14.00;56.33;93950.78;4210232;28;20040;-73
2023/11/15 08:17:49;;;;;;;13.85;6.05;;;;;;;13.75;56.87;93946.06;4209351;28;19963;-73
2023/11/15 08:19:54;;;;;;;10.23;4.40;;;;;;;13.70;57.16;93953.72;4207402;28;20054;-70
2023/11/15 08:21:56;;;;;;;13.52;4.68;;;;;;;13.76;57.48;93933.69;4210559;28;20052;-72
2023/11/15 08:23:58;;;;;;;6.90;4.18;;;;;;;13.64;57.50;93954.53;4210323;28;20071;-72
2023/11/15 08:26:02;;;;;;;15.90;5.03;;;;;;;13.48;58.31;93934.59;4211057;28;20052;-72
2023/11/15 08:28:04;;;;;;;13.80;4.90;;;;;;;13.54;58.49;93938.28;4199393;28;20123;-73
2023/11/15 08:30:17;;;;;;;11.48;4.70;;;;;;;13.60;58.25;93951.47;4210727;28;21045;-72
2023/11/15 08:32:19;;;;;;;16.75;5.22;;;;;;;13.25;59.07;93969.03;4212392;28;20055;-73
2023/11/15 08:34:21;;;;;;;12.02;5.40;;;;;;;13.08;59.75;93958.84;4208847;28;20068;-73
2023/11/15 08:36:26;;;;;;;13.52;5.95;;;;;;;13.18;59.88;93944.53;4205568;28;20052;-72
2023/11/15 08:38:28;;;;;;;11.20;5.43;;;;;;;13.26;59.56;93960.16;4189234;28;20108;-73
2023/11/15 08:40:33;;;;;;;12.05;5.88;;;;;;;13.07;59.78;93965.09;4207481;28;20066;-72
2023/11/15 08:42:35;;;;;;;20.23;8.52;;;;;;;12.94;60.44;93991.28;4207915;28;20071;-72
2023/11/15 08:44:53;;;;;;;23.20;8.23;;;;;;;12.81;60.90;93980.69;4204945;28;20048;-72
2023/11/15 08:46:57;;;;;;;14.75;7.40;;;;;;;12.67;61.51;93977.94;4205134;28;20437;-70
2023/11/15 08:49:00;;;;;;;37.67;18.17;;;;;;;12.70;61.38;93982.81;4186364;28;20122;-72
2023/11/15 08:51:03;;;;;;;28.17;10.43;;;;;;;12.86;60.96;93991.41;4206244;28;20057;-73
2023/11/15 08:53:05;;;;;;;18.48;9.77;;;;;;;12.91;61.25;93981.16;4180750;28;20106;-71
2023/11/15 08:55:09;;;;;;;16.98;9.40;;;;;;;13.04;60.63;93989.16;4198721;28;20052;-74
2023/11/15 08:57:14;;;;;;;19.70;8.60;;;;;;;13.15;60.72;93990.44;4201629;28;20493;-70
2023/11/15 08:59:19;;;;;;;18.00;9.00;;;;;;;13.24;60.87;93991.91;4202824;28;20047;-71
2023/11/15 09:01:24;;;;;;;21.80;8.82;;;;;;;13.31;60.18;93984.91;4191361;28;20056;-73
2023/11/15 09:03:27;;;;;;;28.25;9.60;;;;;;;13.38;60.38;93987.59;4209487;28;20158;-73
2023/11/15 09:05:30;;;;;;;17.73;8.52;;;;;;;13.43;59.93;93990.44;4190378;28;20221;-75
2023/11/15 09:07:31;;;;;;;18.67;9.02;;;;;;;13.49;60.15;93994.13;4199861;28;20072;-73
2023/11/15 09:09:40;;;;;;;17.85;10.00;;;;;;;13.36;60.45;94002.75;4206430;28;20055;-73
2023/11/15 09:11:43;;;;;;;18.38;9.50;;;;;;;12.98;61.11;93992.53;4208037;28;20128;-73
2023/11/15 09:13:45;;;;;;;18.75;9.57;;;;;;;13.01;61.62;94010.53;4197882;28;20588;-72
2023/11/15 09:15:50;;;;;;;30.75;12.45;;;;;;;13.02;61.74;94017.44;4201189;28;20040;-72
2023/11/15 09:17:53;;;;;;;19.60;10.95;;;;;;;13.02;61.87;94021.91;4202852;28;20487;-71
2023/11/15 09:19:59;;;;;;;;;;;;;;;13.12;61.93;94022.38;4198860;28;20062;-72
2023/11/15 09:22:01;;;;;;;22.35;10.95;;;;;;;13.19;61.53;94030.31;4199625;28;20329;-72
2023/11/15 09:24:05;;;;;;;22.13;9.33;;;;;;;13.27;61.37;94033.63;4202568;28;20120;-72
2023/11/15 09:26:13;;;;;;;15.52;8.27;;;;;;;13.33;61.66;94037.31;4206980;28;20327;-72
2023/11/15 09:28:18;;;;;;;21.52;8.80;;;;;;;13.27;62.23;94038.03;4214418;28;20725;-71
2023/11/15 09:30:26;;;;;;;17.60;8.90;;;;;;;13.22;62.73;94043.06;4202470;28;20048;-73
2023/11/15 09:32:29;;;;;;;17.73;8.32;;;;;;;13.13;64.10;94052.13;4211079;28;20076;-74
2023/11/15 09:34:31;;;;;;;20.98;9.23;;;;;;;13.11;66.00;94054.94;4226266;28;20055;-73
2023/11/15 09:36:36;;;;;;;13.30;6.28;;;;;;;12.91;69.27;94068.72;4206952;28;20083;-72